Time;durP1;ratioP1;P1;durP2;ratioP2;P2;SDS_P1;SDS_P2;PMS_P1;PMS_P2;Temp;Humidity;BMP_temperature;BMP_pressure;BME280_temperature;BME280_humidity;BME280_pressure;Samples;Min_cycle;Max_cycle;Signal;HPM_P1;HPM_P2
2023/03/20 00:01:21;;;;;;;24.83;16.35;;;10.40;99.90;;;;;;4958348;28;20096;-80
2023/03/20 00:03:47;;;;;;;27.25;16.98;;;10.40;99.90;;;;;;4966530;28;20045;-80
2023/03/20 00:06:16;;;;;;;25.00;15.38;;;10.30;99.90;;;;;;4983149;28;20026;-80
2023/03/20 00:08:45;;;;;;;24.73;14.52;;;10.30;99.90;;;;;;4968247;28;20034;-80
2023/03/20 00:11:29;;;;;;;24.63;17.42;;;10.40;99.90;;;;;;4968789;28;20501;-80
2023/03/20 00:14:08;;;;;;;20.52;13.63;;;10.20;99.90;;;;;;4971036;28;20433;-80
2023/03/20 00:16:35;;;;;;;21.70;15.15;;;10.30;99.90;;;;;;4968394;28;20049;-80
2023/03/20 00:19:02;;;;;;;24.50;14.68;;;10.10;99.90;;;;;;4955018;28;20506;-80
2023/03/20 00:21:27;;;;;;;16.10;10.55;;;10.20;99.90;;;;;;4971428;28;20033;-80
2023/03/20 00:23:54;;;;;;;19.80;12.70;;;10.30;99.90;;;;;;4963280;28;20033;-79
2023/03/20 00:26:20;;;;;;;24.30;15.95;;;10.20;99.90;;;;;;4980140;28;20041;-80
2023/03/20 00:28:46;;;;;;;25.50;16.20;;;10.20;99.90;;;;;;4963997;28;20027;-80
2023/03/20 00:31:25;;;;;;;27.10;15.77;;;10.20;99.90;;;;;;4984926;28;20022;-80
2023/03/20 00:33:52;;;;;;;24.63;15.32;;;10.10;99.90;;;;;;4986446;28;20065;-80
2023/03/20 00:36:17;;;;;;;25.92;15.88;;;10.20;99.90;;;;;;4968460;28;20033;-80
2023/03/20 00:38:43;;;;;;;26.83;13.98;;;10.10;99.90;;;;;;4966567;28;20042;-80
2023/03/20 00:41:28;;;;;;;21.88;12.43;;;10.10;99.90;;;;;;4970428;28;20113;-81
2023/03/20 00:44:14;;;;;;;20.80;11.23;;;10.10;99.90;;;;;;4986326;28;20060;-79
2023/03/20 00:46:40;;;;;;;17.42;10.95;;;10.10;99.90;;;;;;4975067;28;20022;-80
2023/03/20 00:49:07;;;;;;;23.27;13.43;;;10.10;99.90;;;;;;4969373;28;20541;-80
2023/03/20 00:51:33;;;;;;;20.30;11.43;;;10.00;99.90;;;;;;4961674;28;20344;-80
2023/03/20 00:53:58;;;;;;;22.77;14.25;;;10.00;99.90;;;;;;4967747;28;20034;-80
2023/03/20 00:56:32;;;;;;;22.90;14.25;;;10.10;99.90;;;;;;4970891;28;20267;-81
2023/03/20 00:59:02;;;;;;;18.15;12.65;;;10.00;99.90;;;;;;4982248;28;20129;-80
2023/03/20 01:01:28;;;;;;;18.95;10.32;;;10.10;99.90;;;;;;4955816;28;20030;-80
2023/03/20 01:03:54;;;;;;;13.88;8.73;;;10.10;99.90;;;;;;4973654;28;20038;-80
2023/03/20 01:06:19;;;;;;;18.33;10.13;;;10.10;99.90;;;;;;4968906;28;20055;-80
2023/03/20 01:08:45;;;;;;;22.20;10.13;;;10.10;99.90;;;;;;4982632;28;20069;-81
2023/03/20 01:11:11;;;;;;;23.08;12.95;;;10.20;99.90;;;;;;4982355;28;20037;-81
2023/03/20 01:13:37;;;;;;;10.93;6.50;;;10.10;99.90;;;;;;4972148;28;20030;-81
2023/03/20 01:16:02;;;;;;;17.38;10.27;;;10.10;99.90;;;;;;4965224;28;20048;-80
2023/03/20 01:18:28;;;;;;;15.70;10.18;;;10.10;99.90;;;;;;4957484;28;20033;-81
2023/03/20 01:20:54;;;;;;;13.88;7.53;;;10.00;99.90;;;;;;4987771;28;20385;-80
2023/03/20 01:23:21;;;;;;;17.50;10.52;;;10.10;99.90;;;;;;4951695;28;20097;-80
2023/03/20 01:25:48;;;;;;;16.55;8.75;;;10.10;99.90;;;;;;4956386;28;20410;-81
2023/03/20 01:28:15;;;;;;;14.57;9.27;;;10.00;99.90;;;;;;4958345;28;20031;-80
2023/03/20 01:30:42;;;;;;;17.45;9.75;;;10.00;99.90;;;;;;4951255;28;20034;-82
2023/03/20 01:33:21;;;;;;;15.60;9.93;;;9.90;99.90;;;;;;4953429;28;20042;-81
2023/03/20 01:35:47;;;;;;;10.15;4.70;;;9.80;99.90;;;;;;4960384;28;20054;-81
2023/03/20 01:38:23;;;;;;;12.32;8.40;;;9.90;99.90;;;;;;4963367;28;20046;-81
2023/03/20 01:41:12;;;;;;;15.70;8.55;;;9.90;99.90;;;;;;4955806;28;20054;-81
2023/03/20 01:43:38;;;;;;;15.13;9.15;;;9.80;99.90;;;;;;4962887;28;20031;-82
2023/03/20 01:46:10;;;;;;;14.73;9.35;;;9.90;99.90;;;;;;4957644;28;20025;-81
2023/03/20 01:49:16;;;;;;;19.73;10.15;;;9.80;99.90;;;;;;4974193;28;20030;-82
2023/03/20 01:51:41;;;;;;;13.25;8.88;;;9.80;99.90;;;;;;4928693;28;20076;-82
2023/03/20 01:54:22;;;;;;;16.13;9.32;;;9.80;99.90;;;;;;4958839;28;20567;-81
2023/03/20 01:56:58;;;;;;;13.38;8.95;;;9.70;99.90;;;;;;4953855;28;20055;-81
2023/03/20 01:59:27;;;;;;;13.80;7.55;;;9.70;99.90;;;;;;4971757;28;20038;-81
2023/03/20 02:01:52;;;;;;;11.65;7.15;;;9.90;99.90;;;;;;4972080;28;20517;-81
2023/03/20 02:04:18;;;;;;;13.13;7.65;;;9.80;99.90;;;;;;4955783;28;20034;-81
2023/03/20 02:06:44;;;;;;;14.30;8.63;;;9.70;99.90;;;;;;4963739;28;20435;-82
2023/03/20 02:09:09;;;;;;;16.80;9.10;;;9.60;99.90;;;;;;4969845;28;20029;-82
2023/03/20 02:11:35;;;;;;;11.75;7.32;;;9.60;99.90;;;;;;4971545;28;20030;-84
2023/03/20 02:14:03;;;;;;;10.80;7.40;;;9.60;99.90;;;;;;4963557;28;20038;-83
2023/03/20 02:16:28;;;;;;;14.23;7.53;;;9.50;99.90;;;;;;4948927;28;20117;-83
2023/03/20 02:18:55;;;;;;;11.70;7.70;;;9.50;99.90;;;;;;4966095;28;20199;-84
2023/03/20 02:21:42;;;;;;;12.50;7.00;;;9.50;99.90;;;;;;4950690;28;20030;-83
2023/03/20 02:24:14;;;;;;;12.85;6.53;;;9.50;99.90;;;;;;4985599;28;20627;-83
2023/03/20 02:26:58;;;;;;;13.10;7.60;;;9.40;99.90;;;;;;4974320;28;20682;-83
2023/03/20 02:29:49;;;;;;;12.40;7.35;;;9.40;99.90;;;;;;4996861;28;20060;-83
2023/03/20 02:32:34;;;;;;;10.20;6.40;;;9.40;99.90;;;;;;4984532;28;20798;-82
2023/03/20 02:35:25;;;;;;;13.02;7.35;;;9.40;99.90;;;;;;4985943;28;20141;-82
2023/03/20 02:38:21;;;;;;;10.32;5.95;;;9.40;99.90;;;;;;4953937;28;20521;-82
2023/03/20 02:40:52;;;;;;;12.63;6.25;;;9.40;99.90;;;;;;4970417;28;20132;-82
2023/03/20 02:43:21;;;;;;;8.88;5.75;;;9.20;99.90;;;;;;4987785;28;20022;-82
2023/03/20 02:46:10;;;;;;;10.30;6.45;;;9.30;99.90;;;;;;4970429;28;20391;-81
2023/03/20 02:48:46;;;;;;;13.30;7.03;;;9.10;99.90;;;;;;4972843;28;20029;-82
2023/03/20 02:51:19;;;;;;;;;;;9.20;99.90;;;;;;4976502;28;20109;-82
2023/03/20 02:53:51;;;;;;;13.23;7.05;;;9.10;99.90;;;;;;4986477;28;20448;-82
2023/03/20 02:56:32;;;;;;;13.02;7.93;;;9.10;99.90;;;;;;4973981;28;20397;-82
2023/03/20 02:59:20;;;;;;;11.23;6.78;;;9.10;99.90;;;;;;4992405;28;20038;-82
2023/03/20 03:01:49;;;;;;;11.48;6.13;;;9.00;99.90;;;;;;4968976;28;20052;-82
2023/03/20 03:04:21;;;;;;;12.13;7.25;;;9.00;99.90;;;;;;4955138;28;20553;-82
2023/03/20 03:06:47;;;;;;;10.18;6.15;;;9.00;99.90;;;;;;4956079;28;20442;-82
2023/03/20 03:09:17;;;;;;;12.52;5.82;;;9.00;99.90;;;;;;4954661;28;20152;-82
2023/03/20 03:11:47;;;;;;;14.02;8.10;;;9.00;99.90;;;;;;4982450;28;20095;-82
2023/03/20 03:14:16;;;;;;;11.98;7.18;;;9.00;99.90;;;;;;4976691;28;20034;-82
2023/03/20 03:16:41;;;;;;;11.68;7.18;;;8.90;99.90;;;;;;4961280;28;20038;-82
2023/03/20 03:19:14;;;;;;;13.15;5.38;;;8.90;99.90;;;;;;4966689;28;20038;-82
2023/03/20 03:21:40;;;;;;;9.57;5.82;;;8.90;99.90;;;;;;4954290;28;20038;-82
2023/03/20 03:24:15;;;;;;;10.40;6.10;;;8.90;99.90;;;;;;4947948;28;20030;-82
2023/03/20 03:26:41;;;;;;;8.02;5.35;;;8.90;99.90;;;;;;4963259;28;20046;-82
2023/03/20 03:29:11;;;;;;;11.43;7.20;;;8.80;99.90;;;;;;4949041;28;20049;-82
2023/03/20 03:31:37;;;;;;;10.82;5.68;;;8.90;99.90;;;;;;4956359;28;20204;-83
2023/03/20 03:34:02;;;;;;;9.93;5.82;;;9.00;99.90;;;;;;4952305;28;20566;-82
2023/03/20 03:36:43;;;;;;;10.70;6.07;;;9.00;99.90;;;;;;4951575;28;20068;-82
2023/03/20 03:39:23;;;;;;;7.18;5.18;;;8.90;99.90;;;;;;4958129;28;20034;-82
2023/03/20 03:42:11;;;;;;;9.70;6.53;;;9.00;99.90;;;;;;4986142;28;20037;-82
2023/03/20 03:44:54;;;;;;;12.10;7.43;;;8.80;99.90;;;;;;4966519;28;20034;-81
2023/03/20 03:47:30;;;;;;;12.25;7.72;;;8.80;99.90;;;;;;4979562;28;20596;-80
2023/03/20 03:50:01;;;;;;;14.25;8.13;;;8.70;99.90;;;;;;4957031;28;20029;-81
2023/03/20 03:52:26;;;;;;;15.30;9.23;;;8.80;99.90;;;;;;4974944;28;20092;-83
2023/03/20 03:54:55;;;;;;;9.50;6.05;;;8.60;99.90;;;;;;4982027;28;20031;-82
2023/03/20 03:57:30;;;;;;;11.55;5.82;;;8.70;99.90;;;;;;4973023;28;20500;-81
2023/03/20 03:59:56;;;;;;;11.43;5.80;;;8.70;99.90;;;;;;4973441;28;20544;-81
2023/03/20 04:02:22;;;;;;;16.83;7.13;;;8.80;99.90;;;;;;4977180;28;20269;-82
2023/03/20 04:04:49;;;;;;;14.50;8.77;;;8.70;99.90;;;;;;4969809;28;20208;-82
2023/03/20 04:07:15;;;;;;;11.07;6.55;;;8.50;99.90;;;;;;4954284;28;20486;-82
2023/03/20 04:09:41;;;;;;;13.40;7.00;;;8.40;99.90;;;;;;4955268;28;20030;-82
2023/03/20 04:12:24;;;;;;;10.05;5.78;;;8.40;99.90;;;;;;4982075;28;20026;-82
2023/03/20 04:14:49;;;;;;;12.23;7.43;;;8.50;99.90;;;;;;4974983;28;20034;-83
2023/03/20 04:17:15;;;;;;;12.05;6.85;;;8.40;99.90;;;;;;4951319;28;20461;-83
2023/03/20 04:19:41;;;;;;;9.93;6.10;;;8.40;99.90;;;;;;4940720;28;20041;-81
2023/03/20 04:22:06;;;;;;;13.15;7.93;;;8.50;99.90;;;;;;4977626;28;20100;-83
2023/03/20 04:24:32;;;;;;;15.07;6.65;;;8.50;99.90;;;;;;4956778;28;20030;-83
2023/03/20 04:26:57;;;;;;;12.93;7.38;;;8.40;99.90;;;;;;4965990;28;20092;-83
2023/03/20 04:29:23;;;;;;;13.85;8.25;;;8.50;99.90;;;;;;4958455;28;20715;-83
2023/03/20 04:31:49;;;;;;;15.13;7.93;;;8.60;99.90;;;;;;4985161;28;20034;-83
2023/03/20 04:34:15;;;;;;;12.57;6.38;;;8.70;99.90;;;;;;4973172;28;20038;-83
2023/03/20 04:36:40;;;;;;;16.13;8.63;;;8.70;99.90;;;;;;4971885;28;20494;-82
2023/03/20 04:39:06;;;;;;;16.30;8.50;;;8.80;99.90;;;;;;4952437;28;20129;-83
2023/03/20 04:41:32;;;;;;;18.27;10.32;;;8.70;99.90;;;;;;4958759;28;20083;-82
2023/03/20 04:43:57;;;;;;;13.70;7.10;;;8.60;99.90;;;;;;4971555;28;20034;-83
2023/03/20 04:46:23;;;;;;;17.98;9.55;;;8.60;99.90;;;;;;4973721;28;20026;-81
2023/03/20 04:48:49;;;;;;;16.20;9.25;;;8.70;99.90;;;;;;4957042;28;20034;-84
2023/03/20 04:51:14;;;;;;;12.82;8.30;;;8.60;99.90;;;;;;4961676;28;20058;-83
2023/03/20 04:53:41;;;;;;;14.75;8.38;;;8.70;99.90;;;;;;4987536;28;20026;-83
2023/03/20 04:56:07;;;;;;;15.73;7.65;;;8.60;99.90;;;;;;4958764;28;20066;-84
2023/03/20 04:58:34;;;;;;;20.42;11.30;;;8.60;99.90;;;;;;4955558;28;20479;-83
2023/03/20 05:01:00;;;;;;;16.55;8.88;;;8.60;99.90;;;;;;4954625;28;20048;-83
2023/03/20 05:03:26;;;;;;;16.50;8.50;;;8.40;99.90;;;;;;4964269;28;21478;-83
2023/03/20 05:05:52;;;;;;;16.75;9.13;;;8.50;99.90;;;;;;4953655;28;20462;-82
2023/03/20 05:08:17;;;;;;;18.92;9.20;;;8.50;99.90;;;;;;4983485;28;20030;-81
2023/03/20 05:10:43;;;;;;;19.08;10.05;;;8.50;99.90;;;;;;4966188;28;20505;-83
2023/03/20 05:13:08;;;;;;;20.98;10.93;;;8.50;99.90;;;;;;4985421;28;20030;-83
2023/03/20 05:15:34;;;;;;;15.40;8.95;;;8.20;99.90;;;;;;5001860;28;20676;-83
2023/03/20 05:18:00;;;;;;;17.35;8.63;;;8.30;99.90;;;;;;4958350;28;20038;-83
2023/03/20 05:20:26;;;;;;;15.40;8.75;;;8.20;99.90;;;;;;4957184;28;20486;-83
2023/03/20 05:22:51;;;;;;;16.52;9.30;;;8.20;99.90;;;;;;4954622;28;20025;-83
2023/03/20 05:25:19;;;;;;;16.42;7.32;;;8.10;99.90;;;;;;4961850;28;20041;-83
2023/03/20 05:27:45;;;;;;;16.30;8.70;;;8.10;99.90;;;;;;4974619;28;20030;-83
2023/03/20 05:30:12;;;;;;;16.33;7.65;;;8.00;99.90;;;;;;4965996;28;20080;-83
2023/03/20 05:32:37;;;;;;;20.35;10.27;;;8.00;99.90;;;;;;4941082;28;20044;-83
2023/03/20 05:35:04;;;;;;;17.55;8.68;;;8.00;99.90;;;;;;4982426;28;20030;-80
2023/03/20 05:37:29;;;;;;;18.80;9.75;;;7.90;99.90;;;;;;4970318;28;20068;-83
2023/03/20 05:39:55;;;;;;;11.93;4.95;;;8.00;99.90;;;;;;4950623;28;20072;-82
2023/03/20 05:42:21;;;;;;;15.32;8.25;;;8.00;99.90;;;;;;4965728;28;20018;-83
2023/03/20 05:44:46;;;;;;;16.88;9.07;;;8.00;99.90;;;;;;4954106;28;20064;-82
2023/03/20 05:47:12;;;;;;;17.10;9.30;;;8.00;99.90;;;;;;4952904;28;20478;-82
2023/03/20 05:49:37;;;;;;;14.40;7.60;;;8.00;99.90;;;;;;4973550;28;20402;-82
2023/03/20 05:52:03;;;;;;;14.82;8.30;;;8.00;99.90;;;;;;4992850;28;20079;-82
2023/03/20 05:54:29;;;;;;;15.82;8.35;;;8.10;99.90;;;;;;4965546;28;20449;-81
2023/03/20 05:56:54;;;;;;;18.30;9.23;;;8.00;99.90;;;;;;4985117;28;20040;-81
2023/03/20 05:59:20;;;;;;;15.05;8.38;;;7.80;99.90;;;;;;4959352;28;20124;-83
2023/03/20 06:01:46;;;;;;;14.93;7.75;;;7.90;99.90;;;;;;4969208;28;20040;-83
2023/03/20 06:04:11;;;;;;;16.55;9.38;;;8.10;99.90;;;;;;4952485;28;20030;-83
2023/03/20 06:06:37;;;;;;;17.70;8.55;;;8.10;99.90;;;;;;4967317;28;20679;-83
2023/03/20 06:09:03;;;;;;;15.23;8.23;;;8.00;99.90;;;;;;4972196;28;20034;-83
2023/03/20 06:11:29;;;;;;;14.55;6.85;;;8.00;99.90;;;;;;4964571;28;20498;-82
2023/03/20 06:13:56;;;;;;;16.95;7.85;;;8.00;99.90;;;;;;4977364;28;20053;-83
2023/03/20 06:16:22;;;;;;;11.25;4.30;;;8.00;99.90;;;;;;4965509;28;20034;-82
2023/03/20 06:18:48;;;;;;;16.27;7.65;;;8.00;99.90;;;;;;4970340;28;20057;-83
2023/03/20 06:21:14;;;;;;;12.32;5.85;;;8.00;99.90;;;;;;4974693;28;20034;-83
2023/03/20 06:23:39;;;;;;;16.55;7.20;;;7.90;99.90;;;;;;4965182;28;20511;-82
2023/03/20 06:26:05;;;;;;;8.38;4.18;;;8.00;99.90;;;;;;4958436;28;20121;-82
2023/03/20 06:28:31;;;;;;;16.13;8.65;;;8.00;99.90;;;;;;4955149;28;20082;-82
2023/03/20 06:30:57;;;;;;;16.30;7.82;;;8.00;99.90;;;;;;4965871;28;20501;-82
2023/03/20 06:33:23;;;;;;;10.27;4.25;;;7.90;99.90;;;;;;4971345;28;20041;-82
2023/03/20 06:35:49;;;;;;;12.05;6.60;;;8.00;99.90;;;;;;4956507;28;20125;-81
2023/03/20 06:38:14;;;;;;;17.65;8.63;;;7.90;99.90;;;;;;4970904;28;20564;-83
2023/03/20 06:40:40;;;;;;;12.65;6.10;;;8.00;99.90;;;;;;4971660;28;20088;-82
2023/03/20 06:43:06;;;;;;;13.43;6.50;;;8.10;99.90;;;;;;4955336;28;20054;-82
2023/03/20 06:45:32;;;;;;;14.20;5.45;;;8.10;99.90;;;;;;4989618;28;20046;-81
2023/03/20 06:47:57;;;;;;;13.02;6.15;;;8.10;99.90;;;;;;4961252;28;20064;-81
2023/03/20 06:50:23;;;;;;;14.05;8.15;;;8.10;99.90;;;;;;4963610;28;20021;-81
2023/03/20 06:52:49;;;;;;;11.02;6.22;;;8.10;99.90;;;;;;4956873;28;20418;-81
2023/03/20 06:55:15;;;;;;;14.23;6.70;;;8.10;99.90;;;;;;4974911;28;20749;-82
2023/03/20 06:57:40;;;;;;;16.48;8.05;;;8.20;99.90;;;;;;4972194;28;20033;-82
2023/03/20 07:00:09;;;;;;;14.02;7.57;;;8.10;99.90;;;;;;4954735;28;20026;-83
2023/03/20 07:02:35;;;;;;;14.40;6.50;;;8.20;99.90;;;;;;4985441;28;20693;-82
2023/03/20 07:05:00;;;;;;;13.23;7.43;;;8.20;99.90;;;;;;4978427;28;20116;-82
2023/03/20 07:07:26;;;;;;;9.32;3.92;;;8.30;99.90;;;;;;4987792;28;20030;-82
2023/03/20 07:09:51;;;;;;;13.48;4.80;;;8.30;99.90;;;;;;4954234;28;20031;-81
2023/03/20 07:12:21;;;;;;;16.75;6.45;;;8.30;99.90;;;;;;4969343;28;20022;-82
2023/03/20 07:14:47;;;;;;;14.23;7.55;;;8.30;99.90;;;;;;4977571;28;20045;-82
2023/03/20 07:17:13;;;;;;;11.85;5.20;;;8.30;99.90;;;;;;4956767;28;20022;-81
2023/03/20 07:19:38;;;;;;;16.15;8.50;;;8.50;99.90;;;;;;4972545;28;20053;-79
2023/03/20 07:22:06;;;;;;;9.75;4.78;;;8.40;99.90;;;;;;4959062;28;20026;-80
2023/03/20 07:24:32;;;;;;;12.45;6.20;;;8.40;99.90;;;;;;4957762;28;20050;-81
2023/03/20 07:26:58;;;;;;;14.32;7.78;;;8.50;99.90;;;;;;4979220;28;20044;-81
2023/03/20 07:29:23;;;;;;;18.50;8.52;;;8.60;99.90;;;;;;4973751;28;20544;-80
2023/03/20 07:31:49;;;;;;;5.72;3.13;;;8.50;99.90;;;;;;4982690;28;20038;-81
2023/03/20 07:34:15;;;;;;;13.95;7.43;;;8.60;99.90;;;;;;4956276;28;20572;-81
2023/03/20 07:36:40;;;;;;;14.52;7.47;;;8.60;99.90;;;;;;4962372;28;20049;-81
2023/03/20 07:39:07;;;;;;;13.55;6.82;;;8.70;99.90;;;;;;4961564;28;20042;-80
2023/03/20 07:41:32;;;;;;;14.95;7.25;;;8.80;99.90;;;;;;4954059;28;21214;-81
2023/03/20 07:43:58;;;;;;;9.43;5.90;;;8.80;99.90;;;;;;4954705;28;20140;-80
2023/03/20 07:46:25;;;;;;;8.80;3.22;;;8.80;99.90;;;;;;4976828;28;20026;-80
2023/03/20 07:48:50;;;;;;;6.82;3.80;;;8.90;99.90;;;;;;4955855;28;20058;-80
2023/03/20 07:51:16;;;;;;;3.60;2.60;;;8.90;99.90;;;;;;4962496;28;20446;-80
2023/03/20 07:53:41;;;;;;;8.48;4.78;;;9.00;99.90;;;;;;4953371;28;20038;-81
2023/03/20 07:56:09;;;;;;;10.70;5.05;;;9.10;99.90;;;;;;4952181;28;20030;-81
2023/03/20 07:58:35;;;;;;;12.32;4.72;;;9.00;99.90;;;;;;4969964;28;20034;-80
2023/03/20 08:01:01;;;;;;;10.70;4.78;;;9.10;99.90;;;;;;4990398;28;20045;-80
2023/03/20 08:03:27;;;;;;;13.63;4.43;;;9.20;99.90;;;;;;4971672;28;20456;-81
2023/03/20 08:05:53;;;;;;;9.82;4.47;;;9.20;99.90;;;;;;4953849;28;20093;-81
2023/03/20 08:08:18;;;;;;;13.55;5.35;;;9.20;99.90;;;;;;4957169;28;20037;-80
2023/03/20 08:10:44;;;;;;;14.00;5.00;;;9.40;99.90;;;;;;4959719;28;20537;-80
2023/03/20 08:13:10;;;;;;;13.57;5.65;;;9.50;99.90;;;;;;4958664;28;20038;-80
2023/03/20 08:15:35;;;;;;;9.75;5.50;;;9.50;99.90;;;;;;4952552;28;20092;-80
2023/03/20 08:18:01;;;;;;;12.75;5.75;;;9.70;99.90;;;;;;4977637;28;20045;-80
2023/03/20 08:20:27;;;;;;;12.60;6.03;;;9.80;99.90;;;;;;4959165;28;20087;-81
2023/03/20 08:22:54;;;;;;;11.73;5.90;;;9.90;99.90;;;;;;4980978;28;20026;-80
2023/03/20 08:25:20;;;;;;;13.32;5.28;;;9.90;99.90;;;;;;4988750;28;20340;-81
2023/03/20 08:27:45;;;;;;;12.18;5.55;;;10.10;99.90;;;;;;4958238;28;20034;-81
2023/03/20 08:30:12;;;;;;;18.77;8.70;;;10.20;99.90;;;;;;4958964;28;20486;-81
2023/03/20 08:32:38;;;;;;;9.70;4.53;;;10.10;99.90;;;;;;4952784;28;20485;-83
2023/03/20 08:35:04;;;;;;;14.13;6.72;;;10.30;99.90;;;;;;4962347;28;20090;-81
2023/03/20 08:37:30;;;;;;;8.95;4.72;;;10.30;99.90;;;;;;4974946;28;20034;-80
2023/03/20 08:39:55;;;;;;;9.55;4.18;;;10.30;99.90;;;;;;4956312;28;20420;-80
2023/03/20 08:42:21;;;;;;;8.73;3.60;;;10.30;99.90;;;;;;4969633;28;20040;-80
2023/03/20 08:44:47;;;;;;;10.52;4.55;;;10.30;99.90;;;;;;4987585;28;20034;-79
2023/03/20 08:47:12;;;;;;;8.75;4.93;;;10.40;99.90;;;;;;4991039;28;20397;-78
2023/03/20 08:49:38;;;;;;;16.98;5.20;;;10.40;99.90;;;;;;4959705;28;20027;-79
2023/03/20 08:52:03;;;;;;;14.25;5.78;;;10.40;99.90;;;;;;4989013;28;20057;-80
2023/03/20 08:54:29;;;;;;;7.20;3.65;;;10.50;99.90;;;;;;4958924;28;20030;-78
2023/03/20 08:56:55;;;;;;;6.10;3.95;;;10.60;99.90;;;;;;4984168;28;20112;-78
2023/03/20 08:59:20;;;;;;;12.50;4.72;;;10.70;99.90;;;;;;4956826;28;20029;-78
2023/03/20 09:01:46;;;;;;;12.60;3.20;;;10.80;99.90;;;;;;4954725;28;20069;-79
2023/03/20 09:04:12;;;;;;;7.80;4.20;;;10.90;99.90;;;;;;4954794;28;20045;-80
2023/03/20 09:06:38;;;;;;;5.18;3.28;;;11.00;99.90;;;;;;4958517;28;20053;-81
2023/03/20 09:09:04;;;;;;;11.52;4.13;;;10.80;99.90;;;;;;4987960;28;24820;-80
2023/03/20 09:11:30;;;;;;;11.20;5.60;;;10.80;99.90;;;;;;4970476;28;20069;-79
2023/03/20 09:13:55;;;;;;;13.98;4.88;;;10.80;99.90;;;;;;4971965;28;20119;-77
2023/03/20 09:16:21;;;;;;;8.95;2.83;;;10.90;99.90;;;;;;4974391;28;20461;-78
2023/03/20 09:18:47;;;;;;;12.05;3.78;;;11.00;99.90;;;;;;4985419;28;20038;-79
2023/03/20 09:21:12;;;;;;;17.92;4.38;;;10.90;99.90;;;;;;4985357;28;20478;-77
2023/03/20 09:23:38;;;;;;;10.02;5.20;;;10.90;99.90;;;;;;4953374;28;20053;-77
2023/03/20 09:26:04;;;;;;;11.95;5.78;;;11.00;99.90;;;;;;4971503;28;20042;-77
2023/03/20 09:28:30;;;;;;;11.85;5.78;;;11.10;99.90;;;;;;4988010;28;20084;-79
2023/03/20 09:30:56;;;;;;;10.20;4.93;;;11.10;99.90;;;;;;4957718;28;20045;-78
2023/03/20 09:33:22;;;;;;;5.70;3.47;;;11.00;99.90;;;;;;4952595;28;20045;-79
2023/03/20 09:35:47;;;;;;;13.93;5.88;;;11.10;99.90;;;;;;4953454;28;20382;-78
2023/03/20 09:38:13;;;;;;;13.52;5.65;;;11.00;99.90;;;;;;4994305;28;20042;-78
2023/03/20 09:40:52;;;;;;;8.00;3.90;;;10.80;99.90;;;;;;4973837;28;20493;-79
2023/03/20 09:43:44;;;;;;;10.43;4.43;;;10.80;99.90;;;;;;4976929;28;20546;-79
2023/03/20 09:46:29;;;;;;;7.45;3.05;;;10.90;99.90;;;;;;4988063;28;20108;-78
2023/03/20 09:48:59;;;;;;;11.75;4.90;;;10.80;99.90;;;;;;5011734;28;20026;-79
2023/03/20 09:51:54;;;;;;;5.93;3.35;;;10.90;99.90;;;;;;4988402;28;20033;-77
2023/03/20 09:54:40;;;;;;;4.32;2.83;;;10.90;99.90;;;;;;5000077;28;21049;-78
2023/03/20 09:57:08;;;;;;;9.65;4.85;;;11.10;99.90;;;;;;4974585;28;20565;-78
2023/03/20 09:59:33;;;;;;;8.57;4.00;;;11.10;99.90;;;;;;4959253;28;20105;-78
2023/03/20 10:02:26;;;;;;;8.60;3.40;;;10.90;99.90;;;;;;4956751;28;20163;-77
2023/03/20 10:04:53;;;;;;;9.45;3.28;;;11.00;99.90;;;;;;4991211;28;20615;-78
2023/03/20 10:07:18;;;;;;;6.63;2.95;;;11.00;99.90;;;;;;4958340;28;20030;-78
2023/03/20 10:09:44;;;;;;;8.00;3.20;;;11.20;99.90;;;;;;4968765;28;20372;-78
2023/03/20 10:12:42;;;;;;;19.52;3.47;;;11.00;99.90;;;;;;4976776;28;20042;-78
2023/03/20 10:15:30;;;;;;;6.97;3.30;;;11.10;99.90;;;;;;4973107;28;20022;-79
2023/03/20 10:18:01;;;;;;;5.53;2.28;;;11.10;99.90;;;;;;5003562;28;20092;-78
2023/03/20 10:20:37;;;;;;;7.72;1.92;;;11.50;99.90;;;;;;4967287;28;20543;-79
2023/03/20 10:23:03;;;;;;;6.53;2.08;;;11.40;99.90;;;;;;4954560;28;20084;-78
2023/03/20 10:25:39;;;;;;;9.43;1.83;;;11.30;99.90;;;;;;4987852;28;20026;-78
2023/03/20 10:28:24;;;;;;;3.65;1.48;;;11.20;99.90;;;;;;4988127;28;20543;-79
2023/03/20 10:31:12;;;;;;;5.75;1.35;;;11.30;99.90;;;;;;4957513;28;20474;-78
2023/03/20 10:33:46;;;;;;;7.05;2.17;;;11.40;99.90;;;;;;4991110;28;20944;-79
2023/03/20 10:36:37;;;;;;;3.15;1.83;;;11.40;99.90;;;;;;5005328;28;20041;-80
2023/03/20 10:39:40;;;;;;;8.15;2.58;;;11.70;99.90;;;;;;4987724;28;20070;-79
2023/03/20 10:42:27;;;;;;;4.55;1.30;;;11.60;99.90;;;;;;5003827;28;20142;-77
2023/03/20 10:45:04;;;;;;;4.78;1.52;;;11.50;99.90;;;;;;4965240;28;20034;-78
2023/03/20 10:47:30;;;;;;;3.38;0.82;;;11.50;99.90;;;;;;4970772;28;20033;-78
2023/03/20 10:49:57;;;;;;;5.97;2.10;;;11.80;99.90;;;;;;4969558;28;20069;-79
2023/03/20 10:52:31;;;;;;;2.70;1.48;;;11.90;99.90;;;;;;4985746;28;20103;-79
2023/03/20 10:55:02;;;;;;;3.92;1.35;;;11.70;99.90;;;;;;4966503;28;20060;-78
2023/03/20 10:57:30;;;;;;;2.47;1.65;;;11.80;99.90;;;;;;4972363;28;20038;-80
2023/03/20 10:59:56;;;;;;;4.68;2.08;;;11.90;99.90;;;;;;4973481;28;20409;-78
2023/03/20 11:02:24;;;;;;;6.63;1.90;;;12.10;99.90;;;;;;4959644;28;20034;-79
2023/03/20 11:04:50;;;;;;;2.88;1.88;;;12.20;99.90;;;;;;4972018;28;20052;-79
2023/03/20 11:07:19;;;;;;;3.08;1.38;;;12.20;99.90;;;;;;4956986;28;20437;-78
2023/03/20 11:09:45;;;;;;;4.13;1.88;;;12.20;99.90;;;;;;4975078;28;20034;-77
2023/03/20 11:12:18;;;;;;;2.55;1.00;;;12.20;99.90;;;;;;4956458;28;20030;-78
2023/03/20 11:14:44;;;;;;;6.72;1.25;;;11.90;99.90;;;;;;4974585;28;20038;-77
2023/03/20 11:17:09;;;;;;;3.70;1.60;;;12.20;99.90;;;;;;4992126;28;20095;-78
2023/03/20 11:19:36;;;;;;;7.35;1.92;;;12.10;99.90;;;;;;4960325;28;20068;-77
2023/03/20 11:22:23;;;;;;;2.17;1.35;;;11.80;99.90;;;;;;4978354;28;20130;-79
2023/03/20 11:24:57;;;;;;;7.07;2.00;;;12.30;99.90;;;;;;4974548;28;20114;-78
2023/03/20 11:27:30;;;;;;;2.70;1.88;;;12.00;99.90;;;;;;4995805;28;20052;-77
2023/03/20 11:29:56;;;;;;;4.25;0.95;;;12.20;99.90;;;;;;4971731;28;20489;-78
2023/03/20 11:32:35;;;;;;;11.18;2.42;;;12.20;99.90;;;;;;4956137;28;20046;-77
2023/03/20 11:35:18;;;;;;;9.75;2.25;;;12.50;99.90;;;;;;4986806;28;20057;-78
2023/03/20 11:37:45;;;;;;;5.57;1.38;;;12.20;99.90;;;;;;4973791;28;20045;-79
2023/03/20 11:40:16;;;;;;;7.38;2.28;;;12.40;99.90;;;;;;4963594;28;20482;-79
2023/03/20 11:43:02;;;;;;;6.40;2.60;;;12.60;99.90;;;;;;4975137;28;20360;-77
2023/03/20 11:45:34;;;;;;;5.03;2.03;;;12.70;99.90;;;;;;4960817;28;20068;-78
2023/03/20 11:48:00;;;;;;;3.40;1.42;;;12.80;99.90;;;;;;4980830;28;20040;-79
2023/03/20 11:50:36;;;;;;;8.98;1.58;;;12.70;99.90;;;;;;4979915;28;20343;-79
2023/03/20 11:53:03;;;;;;;5.07;0.98;;;12.80;99.90;;;;;;4974539;28;20037;-78
2023/03/20 11:55:32;;;;;;;1.77;0.82;;;12.90;99.90;;;;;;4974666;28;20090;-78
2023/03/20 11:57:59;;;;;;;4.78;0.98;;;12.90;99.90;;;;;;4989680;28;20038;-78
2023/03/20 12:00:50;;;;;;;7.47;0.82;;;13.00;99.90;;;;;;4962343;28;20049;-79
2023/03/20 12:03:44;;;;;;;5.03;1.50;;;12.90;99.90;;;;;;4990875;28;20033;-78
2023/03/20 12:06:26;;;;;;;3.30;1.05;;;12.80;99.90;;;;;;4984791;28;20046;-79
2023/03/20 12:09:33;;;;;;;4.78;2.13;;;12.50;99.90;;;;;;4988212;28;20091;-79
2023/03/20 12:11:58;;;;;;;;;;;12.40;99.90;;;;;;4989765;28;20030;-80
2023/03/20 12:14:52;;;;;;;3.40;0.80;;;12.40;99.90;;;;;;5007657;28;19996;-79
2023/03/20 12:17:51;;;;;;;4.75;2.03;;;12.20;99.90;;;;;;4974037;28;20021;-79
2023/03/20 12:20:49;;;;;;;5.05;1.77;;;12.60;99.90;;;;;;4988075;28;20036;-78
2023/03/20 12:23:36;;;;;;;3.92;1.75;;;12.60;99.90;;;;;;5006720;28;20149;-79
2023/03/20 12:26:10;;;;;;;5.40;1.92;;;12.30;99.90;;;;;;4982455;28;20027;-78
2023/03/20 12:28:40;;;;;;;6.88;1.70;;;12.40;99.90;;;;;;4964367;28;20050;-79
2023/03/20 12:31:41;;;;;;;5.82;3.00;;;12.30;99.90;;;;;;4994105;28;20030;-79
2023/03/20 12:34:10;;;;;;;3.15;1.55;;;12.30;99.90;;;;;;4985744;28;20050;-79
2023/03/20 12:36:40;;;;;;;7.70;2.00;;;12.40;99.90;;;;;;4986852;28;20105;-79
2023/03/20 12:39:11;;;;;;;5.78;2.05;;;12.10;99.90;;;;;;4979926;28;20049;-79
2023/03/20 12:41:51;;;;;;;6.50;1.90;;;12.20;99.90;;;;;;4975613;28;20052;-78
2023/03/20 12:44:22;;;;;;;5.00;1.70;;;12.40;99.90;;;;;;4976759;28;20030;-79
2023/03/20 12:46:56;;;;;;;2.58;1.00;;;12.40;99.90;;;;;;4985780;28;20070;-79
2023/03/20 12:49:56;;;;;;;4.72;1.63;;;12.30;99.90;;;;;;4972653;28;20037;-78
2023/03/20 12:52:45;;;;;;;6.00;1.30;;;12.20;99.90;;;;;;4985282;28;20053;-79
2023/03/20 12:55:34;;;;;;;4.30;1.10;;;11.90;99.90;;;;;;4974893;28;20473;-78
2023/03/20 12:58:02;;;;;;;3.05;0.85;;;11.90;99.90;;;;;;4940184;28;20096;-79
2023/03/20 13:00:52;;;;;;;3.63;1.38;;;12.10;99.90;;;;;;4989981;28;20477;-79
2023/03/20 13:03:43;;;;;;;6.53;1.50;;;11.90;99.90;;;;;;4991642;28;20036;-79